Time;durP1;ratioP1;P1;durP2;ratioP2;P2;SDS_P1;SDS_P2;PMS_P1;PMS_P2;Temp;Humidity;BMP_temperature;BMP_pressure;BME280_temperature;BME280_humidity;BME280_pressure;Samples;Min_cycle;Max_cycle;Signal;HPM_P1;HPM_P2
2022/05/06 00:02:04;;;;;;;36.53;19.30;;;12.40;99.90;;;;;;4922246;29;20449;-82
2022/05/06 00:04:29;;;;;;;35.85;19.30;;;;;;;;;;4907132;29;20465;-83
2022/05/06 00:06:56;;;;;;;32.67;18.50;;;;;;;;;;4896162;29;20930;-83
2022/05/06 00:09:22;;;;;;;31.00;19.27;;;;;;;;;;4918205;29;20536;-82
2022/05/06 00:11:48;;;;;;;35.67;19.13;;;;;;;;;;4927688;29;20205;-84
2022/05/06 00:14:14;;;;;;;37.70;18.97;;;;;;;;;;4938482;28;20212;-85
2022/05/06 00:16:40;;;;;;;36.75;18.65;;;;;;;;;;4916959;29;21153;-85
2022/05/06 00:19:05;;;;;;;26.83;17.53;;;;;;;;;;4936124;29;20240;-84
2022/05/06 00:21:31;;;;;;;39.60;17.97;;;;;;;;;;4910889;29;20522;-84
2022/05/06 00:23:57;;;;;;;31.67;17.90;;;;;;;;;;4916113;29;20476;-84
2022/05/06 00:26:23;;;;;;;35.60;17.83;;;;;;;;;;4914420;29;20522;-83
2022/05/06 00:28:49;;;;;;;28.17;16.77;;;;;;;;;;4940033;29;20436;-82
2022/05/06 00:31:15;;;;;;;30.00;19.07;;;;;;;;;;4925758;29;20491;-84
2022/05/06 00:33:43;;;;;;;27.97;16.73;;;;;;;;;;4932879;29;20445;-85
2022/05/06 00:36:09;;;;;;;29.17;16.50;;;;;;;;;;4928835;29;20440;-83
2022/05/06 00:38:35;;;;;;;31.60;16.30;;;;;;;;;;4916660;29;20197;-84
2022/05/06 00:41:01;;;;;;;25.60;15.87;;;;;;;;;;4904385;29;20809;-84
2022/05/06 00:43:27;;;;;;;30.07;15.77;;;;;;;;;;4913522;29;20429;-84
2022/05/06 00:45:56;;;;;;;30.08;18.00;;;12.40;99.90;;;;;;4925128;29;20456;-84
2022/05/06 00:48:27;;;;;;;35.90;17.33;;;12.30;99.90;;;;;;4931353;29;20322;-81
2022/05/06 00:50:56;;;;;;;31.15;17.50;;;12.40;99.90;;;;;;4912323;29;20572;-83
2022/05/06 00:53:22;;;;;;;25.55;16.48;;;;;;;;;;4913818;29;20223;-84
2022/05/06 00:55:49;;;;;;;28.57;17.27;;;;;;;;;;4926542;29;20619;-84
2022/05/06 00:58:15;;;;;;;32.58;16.42;;;12.40;99.90;;;;;;4923112;29;20468;-85
2022/05/06 01:00:41;;;;;;;29.10;15.60;;;;;;;;;;4925799;29;20229;-81
2022/05/06 01:03:07;;;;;;;33.17;16.73;;;12.40;99.90;;;;;;4933074;29;20196;-84
2022/05/06 01:05:33;;;;;;;26.63;17.57;;;;;;;;;;4925130;29;20958;-82
2022/05/06 01:07:59;;;;;;;25.67;15.73;;;;;;;;;;4930900;29;20185;-84
2022/05/06 01:10:25;;;;;;;24.50;17.27;;;;;;;;;;4920936;29;20449;-84
2022/05/06 01:12:51;;;;;;;33.20;17.02;;;;;;;;;;4916880;29;20195;-84
2022/05/06 01:15:23;;;;;;;29.30;17.20;;;12.10;99.90;;;;;;4908227;29;20839;-83
2022/05/06 01:17:52;;;;;;;25.90;17.92;;;12.30;99.90;;;;;;4933878;29;20181;-83
2022/05/06 01:20:20;;;;;;;33.03;16.90;;;12.20;99.90;;;;;;4928840;29;20247;-83
2022/05/06 01:22:47;;;;;;;32.63;16.42;;;12.30;99.90;;;;;;4936248;29;20188;-84
2022/05/06 01:25:13;;;;;;;38.03;16.50;;;12.30;99.90;;;;;;4914797;29;20197;-84
2022/05/06 01:27:45;;;;;;;29.38;15.77;;;12.30;99.90;;;;;;4903916;29;20233;-82
2022/05/06 01:30:29;;;;;;;25.23;16.13;;;12.30;99.90;;;;;;4935744;29;20166;-84
2022/05/06 01:32:56;;;;;;;20.55;14.15;;;12.30;99.90;;;;;;4933507;29;20543;-82
2022/05/06 01:35:24;;;;;;;28.95;15.98;;;12.00;99.90;;;;;;4913719;29;20231;-85
2022/05/06 01:37:53;;;;;;;38.20;15.45;;;12.30;99.90;;;;;;4929024;29;20212;-84
2022/05/06 01:40:21;;;;;;;27.15;14.65;;;12.30;99.90;;;;;;4933545;29;20327;-83
2022/05/06 01:42:47;;;;;;;23.02;14.82;;;;;;;;;;4928024;29;20205;-83
2022/05/06 01:45:16;;;;;;;30.08;15.93;;;12.40;99.90;;;;;;4910321;29;20661;-84
2022/05/06 01:47:42;;;;;;;26.55;15.52;;;12.40;99.90;;;;;;4921041;29;20177;-83
2022/05/06 01:50:12;;;;;;;21.25;14.13;;;12.40;99.90;;;;;;4928829;29;20665;-81
2022/05/06 01:52:40;;;;;;;23.67;14.85;;;12.30;99.90;;;;;;4932439;29;20677;-84
2022/05/06 01:55:09;;;;;;;30.15;15.48;;;12.40;99.90;;;;;;4931677;29;20208;-84
2022/05/06 01:57:35;;;;;;;21.30;14.02;;;;;;;;;;4913382;29;20189;-83
2022/05/06 02:00:00;;;;;;;21.13;12.60;;;;;;;;;;4918233;29;20224;-84
2022/05/06 02:02:26;;;;;;;26.17;15.60;;;;;;;;;;4943618;29;20439;-84
2022/05/06 02:07:37;;;;;;;29.23;15.45;;;;;;;;;;4933195;29;20809;-82
2022/05/06 02:10:03;;;;;;;21.40;13.47;;;;;;;;;;4938227;29;20185;-84
2022/05/06 02:12:29;;;;;;;26.77;14.25;;;;;;;;;;4918897;29;20448;-84
2022/05/06 02:14:55;;;;;;;23.40;13.93;;;;;;;;;;4933447;28;20207;-82
2022/05/06 02:17:21;;;;;;;23.87;13.83;;;;;;;;;;4930859;28;20928;-82
2022/05/06 02:19:47;;;;;;;24.57;14.23;;;;;;;;;;4919569;29;20750;-82
2022/05/06 02:22:13;;;;;;;22.10;13.68;;;;;;;;;;4921691;29;20437;-85
2022/05/06 02:24:39;;;;;;;27.53;12.97;;;;;;;;;;4936007;29;20219;-84
2022/05/06 02:27:05;;;;;;;19.00;11.77;;;;;;;;;;4918465;29;20783;-85
2022/05/06 02:29:31;;;;;;;22.60;12.50;;;;;;;;;;4939539;29;20436;-83
2022/05/06 02:34:42;;;;;;;22.13;15.02;;;;;;;;;;4929401;29;20468;-84
2022/05/06 02:37:08;;;;;;;19.52;13.68;;;;;;;;;;4910145;29;20200;-86
2022/05/06 02:39:34;;;;;;;23.40;14.20;;;;;;;;;;4930114;29;20189;-84
2022/05/06 02:42:00;;;;;;;18.23;11.27;;;;;;;;;;4908866;29;20465;-86
2022/05/06 02:44:26;;;;;;;20.93;12.10;;;;;;;;;;4916703;29;20448;-86
2022/05/06 02:46:52;;;;;;;16.77;12.40;;;;;;;;;;4906696;29;20527;-84
2022/05/06 02:49:18;;;;;;;19.00;10.80;;;;;;;;;;4943189;29;20536;-84
2022/05/06 02:51:43;;;;;;;16.67;9.40;;;;;;;;;;4929153;29;20433;-85
2022/05/06 02:54:09;;;;;;;22.70;11.60;;;;;;;;;;4910568;29;20492;-86
2022/05/06 02:56:35;;;;;;;22.53;9.87;;;;;;;;;;4932008;29;20444;-85
2022/05/06 02:59:01;;;;;;;17.00;9.83;;;;;;;;;;4942208;29;20440;-85
2022/05/06 03:01:28;;;;;;;16.30;9.90;;;;;;;;;;4910827;29;20477;-82
2022/05/06 03:03:54;;;;;;;15.80;10.73;;;;;;;;;;4928886;29;20507;-84
2022/05/06 03:06:20;;;;;;;16.93;11.43;;;;;;;;;;4910231;29;20441;-82
2022/05/06 03:08:46;;;;;;;16.87;9.87;;;;;;;;;;4912628;29;20433;-82
2022/05/06 03:11:12;;;;;;;16.40;12.20;;;;;;;;;;4936374;29;20500;-82
2022/05/06 03:13:38;;;;;;;18.47;10.50;;;;;;;;;;4937207;29;20437;-84
2022/05/06 03:16:03;;;;;;;16.57;9.17;;;12.70;99.90;;;;;;4928407;29;20448;-84
2022/05/06 03:18:29;;;;;;;13.80;7.77;;;;;;;;;;4910498;29;20449;-83
2022/05/06 03:20:55;;;;;;;12.10;8.50;;;;;;;;;;4910941;29;20205;-84
2022/05/06 03:23:21;;;;;;;16.93;9.57;;;;;;;;;;4918329;29;20914;-84
2022/05/06 03:25:47;;;;;;;17.47;9.37;;;;;;;;;;4929218;29;20552;-85
2022/05/06 03:28:13;;;;;;;19.40;10.77;;;;;;;;;;4919645;29;20441;-85
2022/05/06 03:30:47;;;;;;;14.02;9.50;;;12.40;99.90;;;;;;4917974;29;21494;-84
2022/05/06 03:33:14;;;;;;;15.77;11.13;;;12.30;99.90;;;;;;4938812;29;20181;-84
2022/05/06 03:35:40;;;;;;;17.20;10.27;;;;;;;;;;4932344;29;20483;-83
2022/05/06 03:38:06;;;;;;;16.13;10.00;;;12.40;99.90;;;;;;4916061;29;20448;-85
2022/05/06 03:40:33;;;;;;;13.40;9.90;;;12.40;99.90;;;;;;4914203;29;20532;-83
2022/05/06 03:43:00;;;;;;;17.27;10.37;;;12.40;99.90;;;;;;4916993;29;20449;-84
2022/05/06 03:45:26;;;;;;;17.50;10.33;;;;;;;;;;4918559;29;20500;-86
2022/05/06 03:47:55;;;;;;;18.00;9.63;;;;;;;;;;4924463;29;20839;-85
2022/05/06 03:53:06;;;;;;;15.67;10.37;;;;;;;;;;4925513;29;20456;-83
2022/05/06 03:55:32;;;;;;;16.38;10.57;;;;;;;;;;4923711;29;20464;-85
2022/05/06 03:57:58;;;;;;;21.10;13.83;;;;;;;;;;4927681;29;20256;-83
2022/05/06 04:00:26;;;;;;;25.10;13.97;;;;;;;;;;4905975;29;21774;-83
2022/05/06 04:02:52;;;;;;;23.00;13.27;;;;;;;;;;4907850;29;21179;-84
2022/05/06 04:05:18;;;;;;;13.73;10.13;;;;;;;;;;4917056;29;20459;-84
2022/05/06 04:07:44;;;;;;;14.67;9.83;;;;;;;;;;4926449;29;20181;-86
2022/05/06 04:10:10;;;;;;;13.43;10.87;;;;;;;;;;4923393;29;20480;-85
2022/05/06 04:12:36;;;;;;;17.20;10.97;;;;;;;;;;4927853;29;20528;-85
2022/05/06 04:15:04;;;;;;;18.07;10.77;;;;;;;;;;4909820;29;20463;-83
2022/05/06 04:17:30;;;;;;;18.00;12.00;;;;;;;;;;4911378;29;20448;-84
2022/05/06 04:25:25;;;;;;;22.65;13.02;;;;;;;;;;4928608;29;20219;-84
2022/05/06 04:27:50;;;;;;;18.63;10.97;;;12.10;99.90;;;;;;4929634;29;20193;-85
2022/05/06 04:30:17;;;;;;;17.47;11.00;;;;;;;;;;4931761;29;20452;-84
2022/05/06 04:32:42;;;;;;;18.80;11.63;;;;;;;;;;4927468;29;21011;-85
2022/05/06 04:35:09;;;;;;;17.97;11.43;;;;;;;;;;4905641;29;20213;-84
2022/05/06 04:37:35;;;;;;;17.30;11.80;;;;;;;;;;4927758;29;20488;-84
2022/05/06 04:40:03;;;;;;;13.02;9.82;;;;;;;;;;4913905;29;20850;-83
2022/05/06 04:42:29;;;;;;;18.23;10.52;;;;;;;;;;4907239;29;20520;-84
2022/05/06 04:44:55;;;;;;;14.60;9.53;;;;;;;;;;4925531;29;20695;-84
2022/05/06 04:47:21;;;;;;;17.48;8.90;;;;;;;;;;4930197;29;20439;-84
2022/05/06 04:49:47;;;;;;;20.63;10.50;;;;;;;;;;4909311;29;20196;-84
2022/05/06 04:52:13;;;;;;;15.87;10.30;;;;;;;;;;4909423;29;21578;-84
2022/05/06 04:54:39;;;;;;;20.63;12.40;;;;;;;;;;4921236;29;20512;-83
2022/05/06 04:57:05;;;;;;;22.70;11.73;;;12.60;99.90;;;;;;4935874;29;20864;-85
2022/05/06 05:02:16;;;;;;;22.47;12.70;;;;;;;;;;4969776;28;20490;-87
2022/05/06 05:04:42;;;;;;;18.63;11.60;;;;;;;;;;4956186;28;20588;-88
2022/05/06 05:07:08;;;;;;;17.25;11.30;;;;;;;;;;4975286;28;20457;-87
2022/05/06 05:12:29;;;;;;;19.33;10.35;;;;;;;;;;4987645;28;20454;-88
2022/05/06 05:15:06;;;;;;;20.80;11.40;;;12.70;99.90;;;;;;4976737;28;20249;-87
2022/05/06 05:17:32;;;;;;;17.00;10.85;;;;;;;;;;4953789;28;20571;-88
2022/05/06 05:19:58;;;;;;;20.40;12.68;;;;;;;;;;4960634;28;20250;-87
2022/05/06 05:22:25;;;;;;;16.00;12.03;;;;;;;;;;4968781;28;20207;-88
2022/05/06 05:24:53;;;;;;;18.13;12.53;;;;;;;;;;4955351;28;20434;-87
2022/05/06 05:27:25;;;;;;;19.17;11.63;;;;;;;;;;4959628;28;20442;-86
2022/05/06 05:29:51;;;;;;;19.25;12.52;;;;;;;;;;4964474;28;20551;-87
2022/05/06 05:32:18;;;;;;;19.77;11.02;;;;;;;;;;4962542;28;20198;-88
2022/05/06 05:34:44;;;;;;;18.23;11.87;;;;;;;;;;4959337;28;20503;-88
2022/05/06 05:37:10;;;;;;;21.73;11.63;;;;;;;;;;4977395;28;20545;-89
2022/05/06 05:39:43;;;;;;;16.70;11.30;;;;;;;;;;4959481;28;20453;-88
2022/05/06 05:42:10;;;;;;;17.17;11.90;;;;;;;;;;4979547;28;20498;-86
2022/05/06 05:50:27;;;;;;;14.03;10.20;;;;;;;;;;4976440;28;20225;-88
2022/05/06 05:52:54;;;;;;;17.60;10.47;;;;;;;;;;4966238;28;20434;-89
2022/05/06 05:55:20;;;;;;;11.95;9.30;;;;;;;;;;4969814;28;20514;-86
2022/05/06 05:57:47;;;;;;;15.93;10.63;;;;;;;;;;4969158;28;20226;-88
2022/05/06 06:00:13;;;;;;;14.50;9.40;;;12.60;99.90;;;;;;4969795;28;20538;-89
2022/05/06 06:02:39;;;;;;;12.93;8.57;;;;;;;;;;4964837;28;20427;-87
2022/05/06 06:05:05;;;;;;;12.70;8.93;;;;;;;;;;4982827;28;20422;-87
2022/05/06 06:07:32;;;;;;;10.93;8.80;;;;;;;;;;4972420;28;20438;-87
2022/05/06 06:09:58;;;;;;;14.40;8.03;;;;;;;;;;4965851;28;20529;-88
2022/05/06 06:12:24;;;;;;;13.90;7.40;;;;;;;;;;4978753;28;20438;-87
2022/05/06 06:14:55;;;;;;;22.67;7.97;;;;;;;;;;4965620;28;20968;-87
2022/05/06 06:17:21;;;;;;;12.13;7.73;;;;;;;;;;4966369;28;20431;-87
2022/05/06 06:19:47;;;;;;;14.33;9.20;;;;;;;;;;4957620;28;20470;-87
2022/05/06 06:22:13;;;;;;;14.00;7.10;;;;;;;;;;4962275;28;20438;-88
2022/05/06 06:24:39;;;;;;;12.10;7.10;;;13.60;99.90;;;;;;4960174;28;20492;-88
2022/05/06 06:27:05;;;;;;;9.77;7.37;;;;;;;;;;4965538;28;20474;-87
2022/05/06 06:29:35;;;;;;;12.77;8.50;;;;;;;;;;4956622;28;20322;-88
2022/05/06 06:32:05;;;;;;;10.63;8.70;;;14.00;99.90;;;;;;4961545;28;20442;-88
2022/05/06 06:37:27;;;;;;;12.10;6.03;;;;;;;;;;4967087;28;20431;-88
2022/05/06 06:40:45;;;;;;;10.57;6.87;;;13.80;99.90;;;;;;4960984;28;20891;-88
2022/05/06 06:43:16;;;;;;;10.73;7.10;;;;;;;;;;4979451;28;20450;-88
2022/05/06 06:45:58;;;;;;;;;;;;;;;;;;;;;
2022/05/06 06:48:40;;;;;;;7.83;5.60;;;;;;;;;;4982571;28;20452;-88
2022/05/06 06:51:09;;;;;;;9.37;6.47;;;;;;;;;;4964485;28;20462;-89
2022/05/06 06:53:35;;;;;;;7.50;6.13;;;;;;;;;;4958531;28;20442;-88
2022/05/06 06:56:04;;;;;;;9.33;5.77;;;;;;;;;;4960635;28;20433;-88
2022/05/06 06:58:30;;;;;;;7.47;5.57;;;;;;;;;;4957430;28;20454;-87
2022/05/06 07:00:57;;;;;;;8.30;6.20;;;13.80;99.90;;;;;;4975456;28;20477;-87
2022/05/06 07:03:27;;;;;;;7.60;5.10;;;;;;;;;;4970577;28;21184;-88
2022/05/06 07:14:06;;;;;;;12.63;5.83;;;;;;;;;;4985072;28;20532;-88
2022/05/06 07:16:32;;;;;;;8.70;5.10;;;;;;;;;;4982586;28;20434;-86
2022/05/06 07:18:58;;;;;;;10.53;5.90;;;;;;;;;;4969634;28;20461;-88
2022/05/06 07:21:24;;;;;;;7.73;5.20;;;;;;;;;;4970996;28;20504;-88
2022/05/06 07:23:50;;;;;;;7.70;5.23;;;;;;;;;;4974918;28;20450;-88
2022/05/06 07:26:16;;;;;;;8.33;5.83;;;;;;;;;;4976913;28;20438;-87
2022/05/06 07:28:42;;;;;;;6.40;5.53;;;;;;;;;;4994420;28;20455;-87
2022/05/06 07:31:12;;;;;;;8.20;5.40;;;;;;;;;;4998016;28;20505;-87
2022/05/06 07:33:39;;;;;;;8.50;5.47;;;;;;;;;;4975908;28;20563;-87
2022/05/06 07:36:05;;;;;;;7.10;6.17;;;;;;;;;;4980520;28;20674;-87
2022/05/06 07:38:32;;;;;;;7.30;5.17;;;;;;;;;;4968754;28;21006;-87
2022/05/06 07:41:01;;;;;;;9.63;6.03;;;;;;;;;;4970709;28;21017;-87
2022/05/06 07:43:27;;;;;;;10.00;5.43;;;;;;;;;;4984177;28;20539;-86
2022/05/06 07:45:53;;;;;;;9.73;5.43;;;;;;;;;;4976800;28;20597;-87
2022/05/06 07:51:06;;;;;;;6.30;4.87;;;;;;;;;;4966151;28;20493;-88
2022/05/06 07:53:35;;;;;;;9.43;5.10;;;;;;;;;;4983631;28;20446;-89
2022/05/06 07:56:12;;;;;;;9.30;4.20;;;;;;;;;;4960583;28;20446;-87
2022/05/06 07:58:41;;;;;;;6.20;4.27;;;;;;;;;;4990845;28;20442;-89
2022/05/06 08:01:10;;;;;;;8.13;5.07;;;;;;;;;;4985904;28;20470;-90
2022/05/06 08:06:27;;;;;;;6.33;4.23;;;;;;;;;;4984702;28;20469;-89
2022/05/06 08:08:56;;;;;;;5.87;4.00;;;;;;;;;;4965499;28;20439;-88
2022/05/06 08:11:22;;;;;;;5.90;4.00;;;;;;;;;;4961400;28;20463;-89
2022/05/06 08:13:52;;;;;;;9.83;6.23;;;;;;;;;;4964257;28;20443;-90
2022/05/06 08:16:18;;;;;;;7.67;4.10;;;;;;;;;;4968045;28;20443;-89
2022/05/06 08:18:44;;;;;;;4.23;3.80;;;;;;;;;;4981226;28;20510;-90
2022/05/06 08:21:13;;;;;;;7.27;3.50;;;;;;;;;;4966419;28;20588;-89
2022/05/06 08:23:39;;;;;;;6.97;4.40;;;;;;;;;;4981278;28;20941;-90
2022/05/06 08:26:05;;;;;;;7.70;3.97;;;;;;;;;;4958898;28;20506;-89
2022/05/06 08:28:31;;;;;;;6.60;3.87;;;;;;;;;;4961575;28;20518;-89
2022/05/06 08:30:57;;;;;;;9.87;3.40;;;;;;;;;;4974423;28;20558;-88
2022/05/06 08:33:26;;;;;;;4.00;3.40;;;;;;;;;;4977647;28;20443;-89
2022/05/06 08:35:52;;;;;;;5.73;3.90;;;;;;;;;;4966318;28;20446;-88
2022/05/06 08:38:18;;;;;;;9.63;4.40;;;;;;;;;;4968548;28;20450;-88
2022/05/06 08:40:45;;;;;;;5.57;3.03;;;;;;;;;;4968727;28;20484;-88
2022/05/06 08:43:11;;;;;;;6.77;4.10;;;;;;;;;;4978171;28;20853;-89
2022/05/06 08:51:11;;;;;;;6.63;3.20;;;;;;;;;;4976144;28;20822;-87
2022/05/06 08:56:24;;;;;;;7.23;3.93;;;;;;;;;;4959496;28;20537;-89
2022/05/06 08:58:50;;;;;;;8.93;3.90;;;;;;;;;;4963087;28;20530;-88
2022/05/06 09:01:21;;;;;;;5.40;3.33;;;21.50;89.30;;;;;;4960681;28;20475;-88
2022/05/06 09:03:51;;;;;;;4.73;3.40;;;;;;;;;;4970994;28;20457;-89
2022/05/06 09:06:33;;;;;;;6.73;3.30;;;21.50;92.10;;;;;;4972876;28;20427;-88
2022/05/06 09:09:00;;;;;;;5.57;3.87;;;22.10;90.90;;;;;;4973604;28;20438;-89
2022/05/06 09:14:20;;;;;;;3.93;3.53;;;23.30;87.50;;;;;;4969241;28;20477;-89
2022/05/06 09:16:46;;;;;;;10.87;3.30;;;;;;;;;;4956126;28;20473;-89
2022/05/06 09:19:21;;;;;;;5.00;2.97;;;23.80;87.80;;;;;;4958972;28;20446;-89
2022/05/06 09:22:04;;;;;;;7.13;3.80;;;23.70;84.30;;;;;;4972755;28;20466;-88
2022/05/06 09:24:30;;;;;;;5.40;2.87;;;23.30;85.30;;;;;;4964500;28;20439;-89
2022/05/06 09:27:00;;;;;;;3.70;2.53;;;23.50;84.20;;;;;;4954411;28;20444;-89
2022/05/06 09:29:33;;;;;;;3.77;3.40;;;23.40;83.50;;;;;;4972913;28;21161;-89
2022/05/06 09:32:29;;;;;;;8.93;3.87;;;23.20;84.80;;;;;;4974185;28;20426;-88
2022/05/06 09:35:13;;;;;;;4.47;3.60;;;22.80;80.60;;;;;;4967279;28;20820;-88
2022/05/06 09:37:39;;;;;;;8.10;3.13;;;;;;;;;;4964058;28;20500;-89
2022/05/06 09:40:06;;;;;;;6.00;3.77;;;;;;;;;;4959394;28;20509;-89
2022/05/06 09:42:33;;;;;;;5.40;3.27;;;;;;;;;;4961495;28;20439;-88
2022/05/06 09:44:59;;;;;;;6.10;2.70;;;;;;;;;;4956625;28;20447;-89
2022/05/06 09:47:25;;;;;;;3.23;2.93;;;;;;;;;;4956673;28;20834;-89
2022/05/06 09:49:52;;;;;;;3.80;2.73;;;;;;;;;;4952906;28;20457;-89
2022/05/06 09:52:19;;;;;;;3.60;3.17;;;;;;;;;;4958302;28;21077;-88
2022/05/06 09:54:46;;;;;;;2.50;2.30;;;23.30;83.50;;;;;;4954302;28;20439;-88
2022/05/06 09:57:13;;;;;;;2.77;2.37;;;23.10;81.70;;;;;;4957179;28;20466;-89
2022/05/06 09:59:39;;;;;;;11.67;2.97;;;22.70;80.70;;;;;;4976230;28;20422;-89
2022/05/06 10:02:06;;;;;;;6.63;3.17;;;21.80;80.40;;;;;;4988524;28;20480;-87
2022/05/06 10:04:33;;;;;;;3.10;2.60;;;21.70;94.20;;;;;;4991602;28;20431;-89
2022/05/06 10:07:03;;;;;;;5.80;3.00;;;22.10;81.60;;;;;;4957914;28;20439;-88
2022/05/06 10:09:37;;;;;;;7.07;2.57;;;22.40;83.60;;;;;;4961966;28;21038;-89
2022/05/06 10:12:05;;;;;;;2.73;2.53;;;23.10;83.30;;;;;;4968571;28;20466;-88
2022/05/06 10:14:32;;;;;;;9.70;3.03;;;22.20;77.60;;;;;;4982156;28;20627;-88
2022/05/06 10:16:58;;;;;;;4.47;2.10;;;;;;;;;;4968684;28;20477;-87
2022/05/06 10:19:44;;;;;;;3.20;2.10;;;21.20;76.80;;;;;;4973516;28;20904;-88
2022/05/06 10:22:11;;;;;;;2.77;1.97;;;;;;;;;;4974387;28;21280;-88
2022/05/06 10:24:50;;;;;;;3.03;2.37;;;21.30;77.80;;;;;;4960044;28;20437;-88
2022/05/06 10:32:25;;;;;;;2.70;2.10;;;20.80;75.70;;;;;;4970550;28;20541;-88
2022/05/06 10:33:17;;;;;;;6.63;2.37;;;;;;;;;;4978457;28;20860;-89
2022/05/06 10:35:44;;;;;;;2.30;2.10;;;20.50;79.00;;;;;;4961682;28;20667;-89
2022/05/06 10:38:27;;;;;;;4.80;2.77;;;20.40;78.60;;;;;;4964389;28;20450;-89
2022/05/06 10:41:02;;;;;;;4.40;2.10;;;20.50;78.30;;;;;;4956340;28;20471;-88
2022/05/06 10:43:39;;;;;;;5.67;2.20;;;20.70;76.60;;;;;;4974680;28;20446;-88
2022/05/06 10:46:06;;;;;;;4.27;2.37;;;;;;;;;;4971694;28;20438;-89
2022/05/06 10:48:32;;;;;;;3.47;2.03;;;;;;;;;;4969514;28;21482;-88
2022/05/06 10:51:21;;;;;;;13.13;2.17;;;20.70;80.60;;;;;;4968361;28;20476;-88
2022/05/06 10:53:47;;;;;;;3.13;2.20;;;;;;;;;;4963191;28;20485;-88
2022/05/06 10:56:14;;;;;;;2.80;1.83;;;;;;;;;;4974061;28;20447;-87
2022/05/06 10:58:40;;;;;;;5.23;2.07;;;20.40;91.60;;;;;;4972020;28;20447;-88
2022/05/06 11:01:06;;;;;;;3.87;1.77;;;;;;;;;;4969572;28;20994;-88
2022/05/06 11:03:32;;;;;;;3.60;2.60;;;;;;;;;;4969801;28;20465;-88
2022/05/06 11:05:58;;;;;;;3.03;2.40;;;;;;;;;;4977245;28;20471;-88
2022/05/06 11:08:33;;;;;;;3.80;2.50;;;20.20;92.60;;;;;;4978110;28;21256;-88
2022/05/06 11:10:59;;;;;;;3.53;1.83;;;;;;;;;;4958569;28;20473;-88
2022/05/06 11:13:25;;;;;;;2.83;2.17;;;20.40;79.00;;;;;;4962113;28;20588;-88
2022/05/06 11:15:52;;;;;;;2.10;1.97;;;;;;;;;;4951960;28;20454;-87
2022/05/06 11:18:19;;;;;;;5.00;2.40;;;;;;;;;;4951555;28;20501;-88
2022/05/06 11:20:45;;;;;;;2.10;1.90;;;;;;;;;;4960631;28;20466;-88
2022/05/06 11:23:14;;;;;;;4.53;2.67;;;20.00;75.00;;;;;;4959727;28;20441;-87
2022/05/06 11:25:47;;;;;;;8.60;2.90;;;20.00;80.10;;;;;;4976746;28;20475;-88
2022/05/06 11:28:21;;;;;;;2.97;2.30;;;20.10;82.80;;;;;;4977877;28;20442;-88
2022/05/06 11:30:49;;;;;;;6.53;2.43;;;20.50;81.30;;;;;;4973250;28;20546;-88
2022/05/06 11:33:31;;;;;;;3.67;2.27;;;20.70;78.20;;;;;;4965470;28;20450;-88
2022/05/06 11:36:02;;;;;;;3.17;2.57;;;20.50;78.10;;;;;;4963566;28;20453;-89
2022/05/06 11:38:37;;;;;;;4.83;2.43;;;20.50;77.20;;;;;;4953189;28;20450;-90
2022/05/06 11:41:07;;;;;;;5.03;2.30;;;20.60;85.30;;;;;;4968368;28;20466;-89
2022/05/06 11:43:33;;;;;;;2.47;2.27;;;;;;;;;;4974985;28;20450;-90
2022/05/06 11:48:45;;;;;;;5.47;2.57;;;20.80;77.30;;;;;;4977438;28;20441;-89
2022/05/06 11:51:35;;;;;;;2.00;1.80;;;20.70;76.20;;;;;;4961332;28;20476;-89
2022/05/06 11:54:03;;;;;;;6.17;2.60;;;20.70;77.60;;;;;;4968247;28;21056;-89
2022/05/06 11:56:29;;;;;;;2.10;1.87;;;;;;;;;;4968201;28;20473;-90
2022/05/06 11:59:05;;;;;;;2.43;2.03;;;21.00;78.10;;;;;;4959458;28;20524;-90
2022/05/06 12:01:32;;;;;;;2.23;2.03;;;20.70;72.20;;;;;;4967886;28;20544;-89
2022/05/06 12:04:03;;;;;;;5.43;2.40;;;20.60;73.90;;;;;;4959763;28;20455;-89
2022/05/06 12:06:31;;;;;;;5.03;2.43;;;;;;;;;;4971081;28;20443;-90
2022/05/06 12:09:21;;;;;;;5.90;2.27;;;21.20;75.40;;;;;;4967598;28;20827;-91
2022/05/06 12:12:07;;;;;;;3.50;2.70;;;21.20;73.50;;;;;;4962002;28;20905;-89
2022/05/06 12:14:33;;;;;;;3.87;2.40;;;;;;;;;;4968214;28;20439;-90
2022/05/06 12:17:01;;;;;;;7.50;2.80;;;21.10;73.90;;;;;;4962100;28;20490;-89
2022/05/06 12:19:41;;;;;;;3.10;2.30;;;21.40;78.50;;;;;;4963893;28;20438;-90
2022/05/06 12:22:14;;;;;;;5.90;2.60;;;21.60;72.90;;;;;;4961215;28;20475;-89
2022/05/06 12:24:55;;;;;;;3.53;2.10;;;21.50;75.70;;;;;;4974901;28;20431;-89
2022/05/06 12:27:33;;;;;;;3.40;2.50;;;21.50;76.50;;;;;;4980781;28;20478;-91
2022/05/06 12:30:01;;;;;;;5.93;2.43;;;;;;;;;;4968277;28;20463;-91
2022/05/06 12:32:30;;;;;;;7.90;3.13;;;;;;;;;;4959346;28;20522;-90
2022/05/06 12:35:10;;;;;;;5.50;2.80;;;21.30;78.10;;;;;;4963000;28;20425;-90
2022/05/06 12:37:56;;;;;;;14.90;2.97;;;20.80;79.20;;;;;;4966515;28;20430;-90
2022/05/06 12:40:31;;;;;;;3.30;3.03;;;20.60;80.80;;;;;;4965122;28;20500;-91
2022/05/06 12:43:08;;;;;;;3.90;2.87;;;20.40;80.70;;;;;;4964372;28;20434;-90
2022/05/06 12:45:34;;;;;;;5.73;3.07;;;20.70;81.90;;;;;;4974276;28;20426;-90
2022/05/06 12:50:45;;;;;;;4.60;2.77;;;;;;;;;;4972704;28;20449;-89
2022/05/06 12:53:11;;;;;;;3.13;2.70;;;;;;;;;;4956606;28;20451;-90
2022/05/06 12:55:37;;;;;;;5.77;3.10;;;;;;;;;;4968547;28;20430;-90
2022/05/06 12:58:03;;;;;;;4.47;3.90;;;;;;;;;;4966683;28;20787;-90
2022/05/06 13:00:29;;;;;;;4.13;3.17;;;;;;;;;;4977934;28;20478;-89
2022/05/06 13:02:56;;;;;;;5.33;3.13;;;;;;;;;;4954952;28;20460;-91
2022/05/06 13:05:24;;;;;;;2.73;2.53;;;20.80;74.00;;;;;;4959502;28;20541;-90
2022/05/06 13:07:51;;;;;;;3.83;2.43;;;;;;;;;;4975142;28;20447;-89
2022/05/06 13:10:17;;;;;;;5.33;2.73;;;;;;;;;;4979203;28;20482;-90
2022/05/06 13:12:45;;;;;;;3.47;2.63;;;;;;;;;;4968810;28;20461;-90
2022/05/06 13:15:11;;;;;;;4.87;2.87;;;;;;;;;;4967674;28;20497;-91
2022/05/06 13:17:40;;;;;;;6.03;2.90;;;;;;;;;;4961589;28;20443;-90
2022/05/06 13:20:06;;;;;;;2.97;2.27;;;;;;;;;;4971925;28;20536;-89
2022/05/06 13:22:32;;;;;;;4.13;3.00;;;;;;;;;;4968863;28;20446;-91
2022/05/06 13:24:58;;;;;;;2.87;2.30;;;;;;;;;;4968491;28;20887;-90
2022/05/06 13:27:24;;;;;;;5.33;2.77;;;;;;;;;;4963027;28;20430;-90
2022/05/06 13:29:49;;;;;;;8.43;3.10;;;;;;;;;;4957471;28;20469;-90
2022/05/06 13:32:16;;;;;;;4.90;2.60;;;;;;;;;;4968236;28;20469;-90
2022/05/06 13:34:42;;;;;;;10.40;2.80;;;;;;;;;;4962703;28;20431;-90
2022/05/06 13:37:08;;;;;;;5.53;3.80;;;21.00;72.20;;;;;;4974603;28;20438;-90
2022/05/06 13:39:34;;;;;;;3.10;2.17;;;;;;;;;;4972421;28;21185;-88
2022/05/06 13:42:00;;;;;;;4.00;2.67;;;;;;;;;;4967667;28;20492;-89
2022/05/06 13:44:26;;;;;;;12.30;3.03;;;;;;;;;;4974179;28;20439;-90
2022/05/06 13:46:54;;;;;;;4.63;3.03;;;;;;;;;;4972652;28;20445;-90
2022/05/06 13:49:20;;;;;;;3.60;2.20;;;;;;;;;;4958939;28;20431;-90
2022/05/06 13:51:46;;;;;;;7.10;2.30;;;;;;;;;;4965288;28;20496;-90
2022/05/06 13:54:12;;;;;;;3.43;2.50;;;;;;;;;;4967753;28;20993;-90
2022/05/06 13:59:23;;;;;;;3.50;2.87;;;;;;;;;;4977611;28;20711;-89
2022/05/06 14:01:49;;;;;;;6.73;3.30;;;;;;;;;;4961314;28;20466;-89
2022/05/06 14:04:15;;;;;;;2.83;2.63;;;;;;;;;;4968114;28;20534;-89
2022/05/06 14:06:41;;;;;;;4.70;2.43;;;;;;;;;;4969621;28;20526;-90
2022/05/06 14:09:07;;;;;;;6.03;3.00;;;;;;;;;;4961591;28;21059;-89
2022/05/06 14:11:33;;;;;;;5.73;3.07;;;;;;;;;;4966259;28;20601;-90
2022/05/06 14:14:00;;;;;;;3.90;2.90;;;;;;;;;;4967544;28;20470;-89
2022/05/06 14:16:26;;;;;;;6.27;3.40;;;20.60;75.30;;;;;;4963682;28;21022;-87
2022/05/06 14:18:57;;;;;;;5.23;2.87;;;20.30;74.40;;;;;;4983149;28;20541;-88
2022/05/06 14:21:33;;;;;;;3.33;2.00;;;20.50;76.60;;;;;;4977316;28;20473;-89
2022/05/06 14:23:59;;;;;;;5.13;3.10;;;;;;;;;;4973066;28;20468;-88
2022/05/06 14:26:32;;;;;;;3.10;2.43;;;20.80;73.00;;;;;;4974567;28;20617;-89
2022/05/06 14:28:59;;;;;;;5.70;2.40;;;;;;;;;;4954378;28;20487;-88
2022/05/06 14:31:25;;;;;;;7.57;3.00;;;;;;;;;;4956628;28;20484;-88
2022/05/06 14:33:54;;;;;;;6.43;2.37;;;;;;;;;;4985540;28;20422;-90
2022/05/06 14:36:21;;;;;;;2.77;2.43;;;;;;;;;;4993120;28;20533;-88
2022/05/06 14:38:48;;;;;;;6.70;2.30;;;;;;;;;;4954449;28;20958;-88
2022/05/06 14:41:14;;;;;;;6.60;2.50;;;;;;;;;;4973293;28;20569;-89
2022/05/06 14:43:40;;;;;;;3.70;3.10;;;;;;;;;;4966218;28;20426;-90
2022/05/06 14:46:07;;;;;;;3.90;3.07;;;;;;;;;;4961933;28;20430;-89
2022/05/06 14:48:33;;;;;;;4.37;2.60;;;;;;;;;;4962217;28;20479;-89
2022/05/06 14:50:59;;;;;;;5.17;2.33;;;;;;;;;;4966307;28;20468;-89
2022/05/06 14:53:36;;;;;;;4.73;2.80;;;22.20;72.50;;;;;;4960749;28;20431;-90
2022/05/06 14:56:04;;;;;;;6.10;3.00;;;;;;;;;;4975731;28;20881;-89
2022/05/06 14:58:39;;;;;;;3.53;2.73;;;;;;;;;;4972104;28;20426;-91
2022/05/06 15:01:25;;;;;;;3.20;2.70;;;;;;;;;;4967872;28;20481;-90
2022/05/06 15:03:51;;;;;;;2.40;2.20;;;;;;;;;;4980904;28;20476;-92
2022/05/06 15:06:17;;;;;;;4.43;3.00;;;;;;;;;;4961954;28;20588;-89
2022/05/06 15:08:56;;;;;;;5.80;2.77;;;;;;;;;;4959723;28;20434;-89